Time;durP1;ratioP1;P1;durP2;ratioP2;P2;SDS_P1;SDS_P2;PMS_P1;PMS_P2;Temp;Humidity;BMP_temperature;BMP_pressure;BME280_temperature;BME280_humidity;BME280_pressure;Samples;Min_cycle;Max_cycle;Signal;HPM_P1;HPM_P2
2023/08/24 00:00:19;;;;;;;7.43;3.17;;;16.00;99.90;;;;;;5069678;28;20032;-81
2023/08/24 00:02:45;;;;;;;4.35;3.35;;;16.00;99.90;;;;;;5066642;28;20118;-81
2023/08/24 00:05:10;;;;;;;4.20;3.20;;;16.00;99.90;;;;;;5067463;28;20041;-81
2023/08/24 00:07:36;;;;;;;3.95;3.53;;;15.90;99.90;;;;;;5067564;28;20044;-81
2023/08/24 00:10:02;;;;;;;5.03;3.30;;;15.90;99.90;;;;;;5080096;28;20040;-81
2023/08/24 00:12:28;;;;;;;3.92;3.40;;;15.90;99.90;;;;;;5077965;28;20101;-81
2023/08/24 00:14:53;;;;;;;4.03;3.10;;;15.90;99.90;;;;;;5078230;28;20093;-81
2023/08/24 00:17:19;;;;;;;5.35;3.30;;;15.80;99.90;;;;;;5083877;28;20040;-81
2023/08/24 00:19:46;;;;;;;3.60;3.10;;;15.80;99.90;;;;;;5087053;28;20048;-81
2023/08/24 00:22:12;;;;;;;4.65;3.40;;;15.70;99.90;;;;;;5074818;28;20833;-81
2023/08/24 00:24:37;;;;;;;4.43;3.22;;;15.70;99.90;;;;;;5066641;28;20102;-81
2023/08/24 00:27:03;;;;;;;5.20;3.45;;;15.70;99.90;;;;;;5066866;28;20032;-81
2023/08/24 00:29:28;;;;;;;5.05;3.75;;;15.70;99.90;;;;;;5072673;28;20075;-81
2023/08/24 00:31:54;;;;;;;6.47;3.97;;;15.60;99.90;;;;;;5077160;28;20045;-81
2023/08/24 00:34:19;;;;;;;4.30;3.65;;;15.70;99.90;;;;;;5080614;28;20048;-81
2023/08/24 00:36:45;;;;;;;5.70;3.60;;;15.60;99.90;;;;;;5074138;28;20045;-81
2023/08/24 00:39:11;;;;;;;6.38;4.22;;;15.60;99.90;;;;;;5067407;28;20057;-81
2023/08/24 00:41:37;;;;;;;5.65;4.18;;;15.60;99.90;;;;;;5070597;28;20425;-81
2023/08/24 00:44:03;;;;;;;7.05;4.53;;;15.60;99.90;;;;;;5067770;28;20198;-81
2023/08/24 00:46:29;;;;;;;9.05;4.78;;;15.70;99.90;;;;;;5069284;28;20486;-81
2023/08/24 00:48:57;;;;;;;6.22;4.60;;;15.70;99.90;;;;;;5079927;28;20752;-81
2023/08/24 00:51:24;;;;;;;9.05;5.53;;;15.70;99.90;;;;;;5067321;28;20044;-81
2023/08/24 00:53:50;;;;;;;8.38;5.15;;;15.80;99.90;;;;;;5049529;28;20052;-81
2023/08/24 00:56:15;;;;;;;7.50;5.00;;;15.80;99.90;;;;;;5079114;28;20091;-80
2023/08/24 00:58:42;;;;;;;7.95;4.93;;;15.80;99.90;;;;;;5072681;28;20079;-81
2023/08/24 01:01:08;;;;;;;5.90;4.60;;;15.80;99.90;;;;;;5072645;28;20052;-81
2023/08/24 01:03:33;;;;;;;5.25;4.75;;;15.80;99.90;;;;;;5070826;28;20041;-81
2023/08/24 01:05:59;;;;;;;8.32;4.97;;;15.80;99.90;;;;;;5085110;28;20131;-81
2023/08/24 01:08:25;;;;;;;5.65;4.70;;;15.80;99.90;;;;;;5070526;28;20127;-81
2023/08/24 01:11:12;;;;;;;10.38;4.97;;;15.80;99.90;;;;;;5070772;28;20098;-80
2023/08/24 01:13:54;;;;;;;12.07;5.07;;;15.80;99.90;;;;;;5086438;28;20126;-81
2023/08/24 01:16:27;;;;;;;9.18;5.40;;;15.90;99.90;;;;;;5081627;28;20054;-81
2023/08/24 01:18:55;;;;;;;10.85;4.88;;;15.90;99.90;;;;;;5083643;28;20048;-81
2023/08/24 01:21:21;;;;;;;5.78;4.55;;;15.90;99.90;;;;;;5075715;28;20056;-81
2023/08/24 01:24:10;;;;;;;6.70;4.30;;;15.90;99.90;;;;;;5085462;28;20106;-82
2023/08/24 01:26:36;;;;;;;6.10;4.03;;;15.90;99.90;;;;;;5078557;28;20048;-81
2023/08/24 01:29:04;;;;;;;7.82;4.40;;;15.90;99.90;;;;;;5089992;28;20051;-81
2023/08/24 01:31:30;;;;;;;5.85;3.83;;;16.00;99.90;;;;;;5077999;28;20047;-81
2023/08/24 01:33:55;;;;;;;5.57;3.78;;;15.90;99.90;;;;;;5090949;28;20040;-81
2023/08/24 01:36:21;;;;;;;6.07;4.10;;;15.90;99.90;;;;;;5081318;28;20040;-80
2023/08/24 01:38:59;;;;;;;7.28;4.10;;;15.90;99.90;;;;;;5069799;28;20113;-80
2023/08/24 01:41:29;;;;;;;5.03;4.05;;;15.90;99.90;;;;;;5087226;28;20071;-81
2023/08/24 01:43:57;;;;;;;7.00;4.25;;;16.00;99.90;;;;;;5063874;28;20048;-81
2023/08/24 01:46:25;;;;;;;8.50;4.15;;;15.90;99.90;;;;;;5073693;28;20032;-81
2023/08/24 01:48:51;;;;;;;6.15;3.95;;;15.90;99.90;;;;;;5069831;28;20800;-81
2023/08/24 01:51:18;;;;;;;7.07;4.07;;;15.90;99.90;;;;;;5070180;28;20052;-81
2023/08/24 01:53:45;;;;;;;5.22;4.43;;;16.00;99.90;;;;;;5051570;28;20060;-81
2023/08/24 01:56:12;;;;;;;5.80;3.83;;;16.00;99.90;;;;;;5070419;28;20060;-81
2023/08/24 01:58:37;;;;;;;6.53;4.25;;;16.00;99.90;;;;;;5090403;28;20127;-81
2023/08/24 02:01:05;;;;;;;6.82;4.43;;;16.00;99.90;;;;;;5075638;28;20144;-81
2023/08/24 02:03:30;;;;;;;5.25;4.32;;;16.00;99.90;;;;;;5087388;28;20059;-81
2023/08/24 02:05:56;;;;;;;5.30;4.45;;;16.00;99.90;;;;;;5070847;28;20394;-82
2023/08/24 02:08:22;;;;;;;9.10;5.00;;;16.00;99.90;;;;;;5082765;28;20047;-81
2023/08/24 02:10:47;;;;;;;7.80;4.78;;;16.00;99.90;;;;;;5069823;28;20040;-81
2023/08/24 02:13:13;;;;;;;5.85;4.50;;;16.10;99.90;;;;;;5069561;28;20052;-81
2023/08/24 02:15:41;;;;;;;7.47;5.43;;;16.00;99.90;;;;;;5069688;28;20059;-81
2023/08/24 02:18:07;;;;;;;6.82;4.57;;;16.10;99.90;;;;;;5089899;28;20142;-81
2023/08/24 02:20:37;;;;;;;9.55;5.22;;;16.00;99.90;;;;;;5089563;28;20044;-81
2023/08/24 02:23:03;;;;;;;9.70;5.13;;;16.10;99.90;;;;;;5071990;28;20887;-81
2023/08/24 02:25:29;;;;;;;7.65;4.85;;;16.10;99.90;;;;;;5077813;28;20036;-81
2023/08/24 02:27:55;;;;;;;5.85;4.78;;;16.00;99.90;;;;;;5081114;28;20051;-81
2023/08/24 02:30:20;;;;;;;9.43;5.20;;;16.00;99.90;;;;;;5074311;28;20867;-81
2023/08/24 02:32:46;;;;;;;9.82;4.72;;;16.10;99.90;;;;;;5068825;28;20044;-81
2023/08/24 02:35:11;;;;;;;8.63;4.97;;;16.10;99.90;;;;;;5069113;28;20044;-81
2023/08/24 02:37:37;;;;;;;6.90;5.20;;;16.00;99.90;;;;;;5069509;28;20061;-81
2023/08/24 02:40:03;;;;;;;8.57;4.70;;;16.00;99.90;;;;;;5070049;28;20056;-81
2023/08/24 02:42:33;;;;;;;7.50;5.10;;;16.10;99.90;;;;;;5086309;28;20421;-81
2023/08/24 02:44:58;;;;;;;8.40;4.70;;;16.00;99.90;;;;;;5085142;28;20044;-81
2023/08/24 02:47:24;;;;;;;12.70;4.78;;;16.00;99.90;;;;;;5070348;28;20040;-81
2023/08/24 02:49:49;;;;;;;10.02;5.28;;;16.00;99.90;;;;;;5078272;28;20499;-81
2023/08/24 02:52:15;;;;;;;7.43;5.07;;;16.00;99.90;;;;;;5078945;28;20460;-81
2023/08/24 02:54:42;;;;;;;8.10;5.10;;;16.10;99.90;;;;;;5088775;28;20070;-81
2023/08/24 02:57:07;;;;;;;6.50;4.65;;;16.00;99.90;;;;;;5085127;28;20052;-81
2023/08/24 02:59:33;;;;;;;6.65;5.57;;;16.00;99.90;;;;;;5082378;28;20040;-81
2023/08/24 03:01:58;;;;;;;8.43;5.57;;;16.00;99.90;;;;;;5086263;28;20059;-81
2023/08/24 03:04:24;;;;;;;7.13;5.20;;;16.00;99.90;;;;;;5068419;28;20052;-81
2023/08/24 03:06:49;;;;;;;8.13;5.93;;;16.00;99.90;;;;;;5051507;28;20065;-81
2023/08/24 03:09:15;;;;;;;7.90;5.93;;;16.10;99.90;;;;;;5069504;28;20084;-81
2023/08/24 03:11:41;;;;;;;8.93;6.40;;;16.10;99.90;;;;;;5077299;28;20050;-81
2023/08/24 03:14:07;;;;;;;9.60;6.38;;;16.10;99.90;;;;;;5083254;28;20128;-81
2023/08/24 03:16:32;;;;;;;6.90;5.82;;;16.00;99.90;;;;;;5062324;28;20131;-81
2023/08/24 03:18:58;;;;;;;10.75;6.13;;;16.00;99.90;;;;;;5071559;28;20469;-81
2023/08/24 03:21:24;;;;;;;9.27;6.35;;;16.00;99.90;;;;;;5081007;28;20138;-81
2023/08/24 03:23:49;;;;;;;12.02;6.47;;;16.00;99.90;;;;;;5085758;28;20123;-81
2023/08/24 03:26:16;;;;;;;10.88;6.38;;;16.00;99.90;;;;;;5083330;28;20068;-81
2023/08/24 03:28:42;;;;;;;9.32;5.90;;;15.90;99.90;;;;;;5068267;28;20395;-81
2023/08/24 03:31:08;;;;;;;8.75;6.35;;;15.90;99.90;;;;;;5076185;28;20116;-81
2023/08/24 03:33:34;;;;;;;9.63;6.30;;;15.90;99.90;;;;;;5068339;28;20451;-81
2023/08/24 03:36:00;;;;;;;8.18;5.63;;;15.90;99.90;;;;;;5068655;28;20051;-81
2023/08/24 03:38:27;;;;;;;8.93;6.32;;;15.80;99.90;;;;;;5066702;28;20044;-80
2023/08/24 03:41:00;;;;;;;8.15;6.00;;;15.80;99.90;;;;;;5068731;28;20125;-81
2023/08/24 03:43:26;;;;;;;10.23;6.28;;;15.80;99.90;;;;;;5071975;28;20055;-81
2023/08/24 03:45:51;;;;;;;9.15;6.00;;;15.80;99.90;;;;;;5071767;28;20049;-81
2023/08/24 03:48:18;;;;;;;7.82;6.30;;;15.80;99.90;;;;;;5080726;28;20483;-81
2023/08/24 03:50:43;;;;;;;7.75;6.22;;;15.80;99.90;;;;;;5070092;28;20052;-81
2023/08/24 03:53:09;;;;;;;9.30;6.22;;;15.70;99.90;;;;;;5085274;28;20047;-81
2023/08/24 03:55:34;;;;;;;10.57;6.20;;;15.70;99.90;;;;;;5067787;28;20486;-81
2023/08/24 03:58:00;;;;;;;7.97;6.80;;;15.70;99.90;;;;;;5079859;28;20044;-81
2023/08/24 04:00:26;;;;;;;9.30;6.22;;;15.70;99.90;;;;;;5067457;28;20040;-81
2023/08/24 04:02:51;;;;;;;9.07;6.43;;;15.60;99.90;;;;;;5074071;28;20072;-81
2023/08/24 04:05:17;;;;;;;7.30;6.60;;;15.60;99.90;;;;;;5071055;28;20036;-80
2023/08/24 04:07:43;;;;;;;11.70;6.72;;;15.50;99.90;;;;;;5077949;28;20041;-80
2023/08/24 04:10:09;;;;;;;8.93;7.50;;;15.50;99.90;;;;;;5066677;28;20045;-80
2023/08/24 04:12:35;;;;;;;10.60;6.65;;;15.50;99.90;;;;;;5068732;28;20044;-81
2023/08/24 04:15:01;;;;;;;8.07;7.30;;;15.50;99.90;;;;;;5068182;28;20118;-81
2023/08/24 04:17:26;;;;;;;8.50;6.68;;;15.40;99.90;;;;;;5067977;28;20105;-81
2023/08/24 04:19:52;;;;;;;9.40;7.43;;;15.40;99.90;;;;;;5068137;28;20060;-81
2023/08/24 04:22:18;;;;;;;8.30;7.28;;;15.40;99.90;;;;;;5088112;28;20076;-81
2023/08/24 04:24:43;;;;;;;8.80;7.15;;;15.30;99.90;;;;;;5082650;28;20044;-81
2023/08/24 04:27:09;;;;;;;9.82;7.30;;;15.30;99.90;;;;;;5071718;28;20347;-81
2023/08/24 04:29:34;;;;;;;9.98;7.28;;;15.30;99.90;;;;;;5070585;28;20044;-81
2023/08/24 04:32:00;;;;;;;9.73;7.72;;;15.30;99.90;;;;;;5069755;28;20108;-80
2023/08/24 04:34:26;;;;;;;10.52;7.55;;;15.30;99.90;;;;;;5091207;28;20074;-80
2023/08/24 04:36:51;;;;;;;12.43;8.43;;;15.30;99.90;;;;;;5081030;28;20547;-81
2023/08/24 04:39:18;;;;;;;10.98;7.85;;;15.20;99.90;;;;;;5072732;28;20056;-80
2023/08/24 04:41:44;;;;;;;10.43;8.55;;;15.20;99.90;;;;;;5082464;28;20053;-80
2023/08/24 04:44:10;;;;;;;10.45;7.60;;;15.20;99.90;;;;;;5072947;28;20039;-80
2023/08/24 04:46:35;;;;;;;10.82;8.30;;;15.20;99.90;;;;;;5071530;28;20494;-80
2023/08/24 04:49:01;;;;;;;12.00;8.60;;;15.30;99.90;;;;;;5072625;28;20041;-80
2023/08/24 04:51:27;;;;;;;10.13;8.30;;;15.20;99.90;;;;;;5071017;28;20037;-80
2023/08/24 04:53:53;;;;;;;10.88;8.65;;;15.20;99.90;;;;;;5070768;28;20048;-80
2023/08/24 04:56:19;;;;;;;10.65;8.60;;;15.20;99.90;;;;;;5080815;28;20074;-80
2023/08/24 04:59:00;;;;;;;10.20;8.55;;;15.30;99.90;;;;;;5071844;28;20052;-80
2023/08/24 05:01:31;;;;;;;9.88;7.53;;;15.30;99.90;;;;;;5071932;28;20037;-80
2023/08/24 05:03:57;;;;;;;11.90;8.33;;;15.30;99.90;;;;;;5078539;28;20051;-80
2023/08/24 05:06:23;;;;;;;12.30;8.50;;;15.30;99.90;;;;;;5084902;28;20036;-80
2023/08/24 05:08:48;;;;;;;10.55;7.85;;;15.30;99.90;;;;;;5071363;28;20051;-80
2023/08/24 05:11:17;;;;;;;14.63;8.60;;;15.30;99.90;;;;;;5071862;28;20384;-81
2023/08/24 05:13:43;;;;;;;11.25;8.45;;;15.30;99.90;;;;;;5071515;28;20521;-81
2023/08/24 05:16:12;;;;;;;11.02;8.05;;;15.30;99.90;;;;;;5071800;28;20048;-81
2023/08/24 05:18:38;;;;;;;12.35;7.90;;;15.30;99.90;;;;;;5091034;28;20040;-82
2023/08/24 05:21:04;;;;;;;14.70;8.07;;;15.40;99.90;;;;;;5090986;28;20055;-81
2023/08/24 05:23:34;;;;;;;11.00;7.57;;;15.40;99.90;;;;;;5065197;28;20036;-81
2023/08/24 05:26:02;;;;;;;12.13;8.43;;;15.40;99.90;;;;;;5080226;28;20036;-82
2023/08/24 05:28:28;;;;;;;12.20;8.10;;;15.50;99.90;;;;;;5070980;28;20037;-82
2023/08/24 05:30:55;;;;;;;9.00;7.28;;;15.60;99.90;;;;;;5081562;28;20048;-82
2023/08/24 05:33:22;;;;;;;10.93;7.28;;;15.70;99.90;;;;;;5070966;28;20079;-82
2023/08/24 05:35:48;;;;;;;10.07;7.53;;;15.80;99.90;;;;;;5071983;28;20036;-82
2023/08/24 05:38:15;;;;;;;11.18;7.43;;;15.90;99.90;;;;;;5091643;28;20056;-82
2023/08/24 05:40:42;;;;;;;9.52;7.00;;;15.90;99.90;;;;;;5091379;28;20532;-82
2023/08/24 05:43:09;;;;;;;9.15;7.15;;;15.90;99.90;;;;;;5073307;28;20036;-82
2023/08/24 05:45:35;;;;;;;8.98;7.40;;;15.90;99.90;;;;;;5071292;28;20483;-81
2023/08/24 05:48:01;;;;;;;9.77;7.18;;;16.30;99.90;;;;;;5069485;28;20062;-82
2023/08/24 05:50:26;;;;;;;10.25;6.88;;;16.00;99.90;;;;;;5086933;28;20076;-82
2023/08/24 05:52:52;;;;;;;12.77;7.20;;;16.10;99.90;;;;;;5082087;28;20071;-82
2023/08/24 05:55:17;;;;;;;8.20;6.65;;;16.50;99.90;;;;;;5076207;28;20452;-82
2023/08/24 05:57:43;;;;;;;12.15;6.80;;;17.20;99.90;;;;;;5070321;28;20068;-82
2023/08/24 06:00:09;;;;;;;9.73;6.90;;;17.90;99.90;;;;;;5070071;28;20056;-82
2023/08/24 06:02:39;;;;;;;9.07;6.97;;;18.50;99.90;;;;;;5073851;28;20521;-80
2023/08/24 06:05:06;;;;;;;9.68;6.28;;;18.70;99.90;;;;;;5078978;28;20090;-82
2023/08/24 06:07:32;;;;;;;8.23;6.18;;;18.50;99.90;;;;;;5090660;28;20048;-81
2023/08/24 06:09:58;;;;;;;5.93;5.28;;;18.20;99.90;;;;;;5088773;28;20533;-83
2023/08/24 06:12:23;;;;;;;8.70;6.00;;;17.90;99.90;;;;;;5091069;28;20109;-81
2023/08/24 06:14:49;;;;;;;7.47;5.88;;;17.80;99.90;;;;;;5089885;28;20055;-82
2023/08/24 06:17:15;;;;;;;9.45;6.28;;;17.70;99.90;;;;;;5091284;28;20040;-82
2023/08/24 06:19:41;;;;;;;7.22;5.65;;;17.80;99.90;;;;;;5079059;28;20106;-81
2023/08/24 06:22:06;;;;;;;5.47;4.97;;;17.80;99.90;;;;;;5082496;28;20413;-81
2023/08/24 06:24:33;;;;;;;6.70;5.32;;;17.90;99.90;;;;;;5090508;28;20131;-81
2023/08/24 06:26:59;;;;;;;6.60;5.50;;;17.80;99.90;;;;;;5089202;28;20108;-81
2023/08/24 06:29:24;;;;;;;7.95;5.43;;;17.90;99.90;;;;;;5090939;28;20052;-82
2023/08/24 06:31:50;;;;;;;5.95;4.95;;;17.90;99.90;;;;;;5089978;28;20048;-82
2023/08/24 06:34:15;;;;;;;6.68;5.32;;;18.00;99.90;;;;;;5090677;28;20040;-82
2023/08/24 06:36:41;;;;;;;8.45;5.63;;;18.30;99.90;;;;;;5085697;28;20040;-82
2023/08/24 06:39:08;;;;;;;7.18;5.28;;;18.40;99.90;;;;;;5086469;28;20494;-81
2023/08/24 06:41:35;;;;;;;7.50;5.32;;;18.50;99.90;;;;;;5087572;28;20093;-82
2023/08/24 06:44:00;;;;;;;7.68;6.00;;;18.50;99.90;;;;;;5068896;28;20193;-82
2023/08/24 06:46:26;;;;;;;9.43;5.88;;;18.60;99.90;;;;;;5067768;28;20131;-84
2023/08/24 06:48:51;;;;;;;8.43;5.78;;;18.60;99.90;;;;;;5069307;28;20050;-81
2023/08/24 06:51:17;;;;;;;7.75;6.13;;;18.70;99.90;;;;;;5069112;28;20036;-82
2023/08/24 06:53:43;;;;;;;9.57;5.65;;;18.70;99.90;;;;;;5068189;28;20126;-82
2023/08/24 06:56:08;;;;;;;9.68;6.85;;;18.90;99.90;;;;;;5068719;28;20159;-82
2023/08/24 06:58:34;;;;;;;9.50;6.82;;;19.00;99.90;;;;;;5069215;28;20036;-81
2023/08/24 07:01:01;;;;;;;9.10;6.25;;;19.10;99.90;;;;;;5068912;28;20043;-81
2023/08/24 07:03:26;;;;;;;8.27;6.55;;;19.20;99.90;;;;;;5069109;28;20048;-82
2023/08/24 07:05:52;;;;;;;8.32;6.32;;;19.30;99.90;;;;;;5068409;28;20063;-81
2023/08/24 07:08:18;;;;;;;8.45;7.00;;;19.40;99.90;;;;;;5066963;28;20047;-82
2023/08/24 07:10:44;;;;;;;9.45;7.10;;;19.50;99.90;;;;;;5051309;28;20044;-82
2023/08/24 07:13:09;;;;;;;9.60;6.65;;;19.50;99.90;;;;;;5088964;28;20075;-82
2023/08/24 07:15:35;;;;;;;11.73;7.47;;;19.50;99.90;;;;;;5089152;28;20159;-81
2023/08/24 07:18:05;;;;;;;10.48;7.45;;;19.60;99.90;;;;;;5088330;28;20055;-82
2023/08/24 07:20:32;;;;;;;9.88;7.28;;;19.60;99.90;;;;;;5088805;28;20127;-82
2023/08/24 07:22:58;;;;;;;8.68;6.75;;;19.70;99.90;;;;;;5089077;28;20036;-83
2023/08/24 07:25:24;;;;;;;10.18;7.82;;;19.90;99.90;;;;;;5087740;28;20512;-82
2023/08/24 07:27:49;;;;;;;10.77;7.10;;;20.00;99.90;;;;;;5068356;28;20147;-82
2023/08/24 07:30:15;;;;;;;9.95;7.28;;;20.00;99.90;;;;;;5068437;28;20043;-81
2023/08/24 07:32:41;;;;;;;11.32;7.78;;;20.10;99.90;;;;;;5066999;28;20490;-81
2023/08/24 07:35:07;;;;;;;9.70;7.20;;;20.20;99.90;;;;;;5068111;28;20045;-82
2023/08/24 07:37:33;;;;;;;12.43;7.75;;;20.30;99.90;;;;;;5068305;28;20079;-82
2023/08/24 07:39:58;;;;;;;10.15;7.65;;;20.40;99.90;;;;;;5067990;28;20055;-81
2023/08/24 07:42:24;;;;;;;11.85;6.93;;;20.50;99.90;;;;;;5067390;28;20055;-82
2023/08/24 07:44:50;;;;;;;8.18;6.80;;;20.50;99.90;;;;;;5081061;28;20674;-82
2023/08/24 07:47:16;;;;;;;11.38;7.38;;;20.70;99.90;;;;;;5066786;28;20123;-82
2023/08/24 07:49:44;;;;;;;9.52;6.95;;;20.90;99.90;;;;;;5066212;28;20083;-82
2023/08/24 07:52:11;;;;;;;9.35;7.03;;;21.00;99.90;;;;;;5066589;28;20124;-82
2023/08/24 07:54:37;;;;;;;11.40;7.10;;;21.10;99.90;;;;;;5066214;28;20411;-81
2023/08/24 07:57:03;;;;;;;11.70;8.70;;;21.10;99.90;;;;;;5066596;28;20056;-82
2023/08/24 07:59:28;;;;;;;8.82;7.35;;;21.10;99.90;;;;;;5066607;28;20064;-82
2023/08/24 08:01:54;;;;;;;11.38;7.30;;;21.20;99.90;;;;;;5073210;28;20063;-82
2023/08/24 08:04:19;;;;;;;8.88;7.50;;;21.30;99.90;;;;;;5074476;28;20051;-82
2023/08/24 08:06:45;;;;;;;8.57;7.70;;;21.40;99.90;;;;;;5064941;28;20036;-82
2023/08/24 08:09:11;;;;;;;9.15;8.20;;;21.50;99.90;;;;;;5049626;28;20512;-82
2023/08/24 08:11:36;;;;;;;10.07;7.40;;;21.50;99.90;;;;;;5067778;28;20399;-83
2023/08/24 08:14:02;;;;;;;10.38;7.45;;;21.60;99.90;;;;;;5082647;28;20818;-83
2023/08/24 08:16:28;;;;;;;7.00;6.10;;;21.70;99.90;;;;;;5077687;28;20401;-82
2023/08/24 08:18:53;;;;;;;9.25;7.45;;;21.80;99.90;;;;;;5067051;28;20086;-82
2023/08/24 08:21:19;;;;;;;8.48;7.35;;;22.00;99.90;;;;;;5067986;28;20117;-83
2023/08/24 08:23:45;;;;;;;10.88;7.57;;;22.20;99.90;;;;;;5067605;28;20099;-83
2023/08/24 08:26:13;;;;;;;10.55;8.02;;;22.20;99.90;;;;;;5067903;28;20040;-83
2023/08/24 08:28:39;;;;;;;8.55;6.78;;;22.20;99.90;;;;;;5049255;28;20057;-81
2023/08/24 08:31:05;;;;;;;7.90;7.10;;;22.40;99.90;;;;;;5068209;28;20055;-81
2023/08/24 08:33:31;;;;;;;8.98;7.53;;;22.50;99.90;;;;;;5074012;28;20493;-81
2023/08/24 08:35:57;;;;;;;9.27;7.22;;;22.70;99.90;;;;;;5082903;28;20055;-81
2023/08/24 08:38:25;;;;;;;10.07;7.78;;;22.80;99.90;;;;;;5078099;28;20051;-80
2023/08/24 08:40:56;;;;;;;9.98;8.38;;;23.00;99.90;;;;;;5071402;28;20067;-81
2023/08/24 08:43:22;;;;;;;8.48;7.68;;;23.00;99.90;;;;;;5081693;28;20049;-80
2023/08/24 08:45:52;;;;;;;10.88;8.27;;;23.00;99.90;;;;;;5066988;28;20056;-81
2023/08/24 08:48:20;;;;;;;9.98;8.02;;;23.00;99.90;;;;;;5072384;28;20481;-81
2023/08/24 08:50:49;;;;;;;9.98;7.90;;;23.10;99.90;;;;;;5078101;28;20112;-81
2023/08/24 08:53:15;;;;;;;11.07;9.50;;;23.20;99.90;;;;;;5065556;28;20490;-81
2023/08/24 08:55:41;;;;;;;10.50;8.10;;;23.20;99.90;;;;;;5073422;28;20100;-80
2023/08/24 08:58:07;;;;;;;9.20;7.93;;;23.30;99.90;;;;;;5087221;28;20036;-79
2023/08/24 09:00:33;;;;;;;10.65;8.38;;;23.30;99.90;;;;;;5073447;28;20045;-81
2023/08/24 09:03:00;;;;;;;11.45;8.20;;;23.50;99.90;;;;;;5067730;28;20044;-81
2023/08/24 09:05:26;;;;;;;9.02;7.82;;;23.60;99.90;;;;;;5072718;28;20051;-81
2023/08/24 09:07:54;;;;;;;9.45;8.50;;;23.60;99.90;;;;;;5087491;28;20040;-81
2023/08/24 09:10:20;;;;;;;10.35;8.35;;;23.70;99.90;;;;;;5087191;28;20498;-81
2023/08/24 09:12:45;;;;;;;9.43;7.53;;;23.70;99.90;;;;;;5088171;28;20162;-81
2023/08/24 09:15:11;;;;;;;11.23;8.63;;;23.70;99.90;;;;;;5088429;28;20131;-80
2023/08/24 09:17:43;;;;;;;10.23;8.35;;;23.70;99.90;;;;;;5090102;28;20048;-81
2023/08/24 09:20:09;;;;;;;8.45;7.57;;;23.80;99.90;;;;;;5073687;28;20123;-81
2023/08/24 09:22:37;;;;;;;10.65;7.97;;;23.90;99.90;;;;;;5073614;28;20051;-81
2023/08/24 09:25:04;;;;;;;8.98;7.72;;;24.00;99.90;;;;;;5070447;28;20501;-81
2023/08/24 09:27:31;;;;;;;10.13;8.23;;;24.10;99.90;;;;;;5070815;28;20418;-81
2023/08/24 09:29:56;;;;;;;11.93;8.45;;;24.20;99.90;;;;;;5070754;28;20455;-81
2023/08/24 09:32:32;;;;;;;10.27;7.40;;;24.40;99.90;;;;;;5070375;28;20189;-81
2023/08/24 09:35:08;;;;;;;9.80;7.47;;;24.40;99.90;;;;;;5070376;28;20429;-82
2023/08/24 09:37:37;;;;;;;9.63;6.97;;;24.40;99.90;;;;;;5080671;28;20585;-81
2023/08/24 09:40:07;;;;;;;10.00;6.40;;;24.40;99.90;;;;;;5075937;28;20048;-82
2023/08/24 09:42:39;;;;;;;9.75;6.40;;;24.40;99.90;;;;;;5069707;28;20627;-81
2023/08/24 09:45:05;;;;;;;7.07;6.32;;;24.30;99.90;;;;;;5089821;28;20620;-82
2023/08/24 09:47:31;;;;;;;9.32;6.75;;;24.30;99.90;;;;;;5090887;28;20063;-81
2023/08/24 09:49:56;;;;;;;8.32;6.55;;;24.20;99.90;;;;;;5090833;28;20040;-82
2023/08/24 09:52:26;;;;;;;10.18;6.97;;;24.10;99.90;;;;;;5090907;28;20081;-81
2023/08/24 09:54:53;;;;;;;8.40;6.57;;;23.90;99.90;;;;;;5083469;28;20123;-82
2023/08/24 09:57:19;;;;;;;8.30;6.57;;;23.90;99.90;;;;;;5082886;28;20159;-81
2023/08/24 09:59:47;;;;;;;9.38;6.68;;;23.80;99.90;;;;;;5069023;28;21220;-81
2023/08/24 10:02:20;;;;;;;8.80;6.75;;;23.70;99.90;;;;;;5070878;28;20120;-81
2023/08/24 10:04:48;;;;;;;7.40;6.07;;;23.70;99.90;;;;;;5074732;28;20193;-81
2023/08/24 10:07:35;;;;;;;7.60;6.78;;;23.70;99.90;;;;;;5088212;28;20412;-83
2023/08/24 10:10:10;;;;;;;10.82;7.63;;;23.70;99.90;;;;;;5078554;28;20041;-82
2023/08/24 10:12:43;;;;;;;10.50;7.13;;;23.70;99.90;;;;;;5070129;28;20052;-81
2023/08/24 10:15:11;;;;;;;9.32;7.43;;;23.70;99.90;;;;;;5070865;28;20044;-81
2023/08/24 10:17:39;;;;;;;7.82;6.97;;;23.60;99.90;;;;;;5078035;28;20044;-81
2023/08/24 10:20:08;;;;;;;9.95;7.47;;;23.60;99.90;;;;;;5077641;28;20490;-81
2023/08/24 10:22:35;;;;;;;8.40;7.22;;;23.50;99.90;;;;;;5072500;28;20044;-82
2023/08/24 10:25:01;;;;;;;11.45;7.60;;;23.50;99.90;;;;;;5087289;28;20083;-82
2023/08/24 10:27:29;;;;;;;8.02;6.38;;;23.40;99.90;;;;;;5079340;28;20040;-81
2023/08/24 10:29:55;;;;;;;8.50;7.07;;;23.60;99.90;;;;;;5067093;28;20101;-81
2023/08/24 10:32:23;;;;;;;7.63;6.80;;;23.60;99.90;;;;;;5069661;28;20064;-82
2023/08/24 10:34:49;;;;;;;10.98;7.45;;;23.60;99.90;;;;;;5069207;28;20135;-80
2023/08/24 10:37:14;;;;;;;9.80;8.40;;;23.60;99.90;;;;;;5067649;28;20486;-81
2023/08/24 10:39:47;;;;;;;9.10;8.02;;;23.60;99.90;;;;;;5068480;28;20088;-82
2023/08/24 10:42:13;;;;;;;8.80;7.90;;;23.60;99.90;;;;;;5068690;28;20068;-81
2023/08/24 10:44:43;;;;;;;11.50;8.35;;;23.70;99.90;;;;;;5073801;28;20051;-80
2023/08/24 10:47:18;;;;;;;11.73;8.13;;;23.60;99.90;;;;;;5068747;28;20129;-81
2023/08/24 10:49:55;;;;;;;10.10;8.15;;;23.60;99.90;;;;;;5068827;28;20127;-81
2023/08/24 10:52:22;;;;;;;8.43;7.05;;;23.70;99.90;;;;;;5077222;28;20118;-82
2023/08/24 10:54:49;;;;;;;7.97;7.18;;;23.70;99.90;;;;;;5087058;28;20182;-81
2023/08/24 10:57:43;;;;;;;8.77;7.80;;;23.70;99.90;;;;;;5089368;28;20051;-80
2023/08/24 11:00:10;;;;;;;8.38;7.43;;;23.80;99.90;;;;;;5087755;28;20043;-80
2023/08/24 11:02:47;;;;;;;8.70;7.85;;;23.70;99.90;;;;;;5074589;28;20044;-81
2023/08/24 11:05:33;;;;;;;8.13;7.03;;;23.80;99.90;;;;;;5078076;28;20036;-80
2023/08/24 11:08:01;;;;;;;10.48;7.18;;;23.90;99.90;;;;;;5088300;28;20175;-80
2023/08/24 11:10:34;;;;;;;9.40;7.75;;;23.90;99.90;;;;;;5085347;28;20054;-81
2023/08/24 11:13:03;;;;;;;16.13;7.82;;;23.90;99.90;;;;;;5082276;28;20106;-81
2023/08/24 11:15:57;;;;;;;9.95;8.00;;;24.10;99.90;;;;;;5069731;28;20048;-81
2023/08/24 11:18:30;;;;;;;9.30;7.88;;;24.20;99.90;;;;;;5068419;28;20055;-80
2023/08/24 11:20:55;;;;;;;9.55;8.55;;;24.30;99.90;;;;;;5068794;28;20083;-81
2023/08/24 11:23:23;;;;;;;11.43;8.55;;;24.40;99.90;;;;;;5070969;28;20079;-80
2023/08/24 11:25:56;;;;;;;9.82;8.90;;;24.40;99.90;;;;;;5083103;28;20055;-81
2023/08/24 11:28:22;;;;;;;11.20;9.23;;;24.50;99.90;;;;;;5077803;28;20055;-81
2023/08/24 11:30:48;;;;;;;11.85;8.75;;;24.70;99.90;;;;;;5069510;28;20732;-81
2023/08/24 11:33:14;;;;;;;13.68;9.13;;;24.70;99.90;;;;;;5068449;28;20041;-80
2023/08/24 11:35:44;;;;;;;13.30;9.32;;;24.70;99.90;;;;;;5067513;28;20043;-80
2023/08/24 11:38:10;;;;;;;11.65;8.93;;;24.80;99.90;;;;;;5066706;28;20044;-81
2023/08/24 11:40:37;;;;;;;10.57;8.45;;;24.80;99.90;;;;;;5071357;28;20041;-82
2023/08/24 11:43:05;;;;;;;12.50;9.00;;;24.80;99.90;;;;;;5070011;28;20044;-82
2023/08/24 11:45:42;;;;;;;13.38;9.30;;;24.90;99.90;;;;;;5068190;28;20055;-81
2023/08/24 11:48:07;;;;;;;13.63;9.70;;;25.10;99.90;;;;;;5050261;28;20045;-80
2023/08/24 11:50:36;;;;;;;9.02;8.13;;;25.00;99.90;;;;;;5067567;28;20044;-80
2023/08/24 11:53:02;;;;;;;9.18;7.78;;;25.00;99.90;;;;;;5066789;28;20044;-80
2023/08/24 11:55:28;;;;;;;8.63;7.10;;;25.00;99.90;;;;;;5067352;28;20600;-80
2023/08/24 11:57:55;;;;;;;9.93;7.57;;;25.10;99.90;;;;;;5068962;28;20052;-80
2023/08/24 12:00:21;;;;;;;9.57;7.60;;;25.10;99.90;;;;;;5056125;28;20045;-80
2023/08/24 12:02:48;;;;;;;8.18;6.90;;;25.20;99.90;;;;;;5066971;28;20128;-81
2023/08/24 12:05:24;;;;;;;7.97;7.18;;;25.20;99.90;;;;;;5068183;28;20048;-81
2023/08/24 12:07:53;;;;;;;9.73;7.10;;;25.20;99.90;;;;;;5067811;28;20113;-81
2023/08/24 12:10:19;;;;;;;10.07;7.00;;;25.20;99.90;;;;;;5068054;28;20060;-82
2023/08/24 12:12:45;;;;;;;7.28;5.80;;;25.20;99.90;;;;;;5067717;28;20115;-81
2023/08/24 12:15:20;;;;;;;9.40;6.22;;;25.20;99.90;;;;;;5067739;28;20127;-81
2023/08/24 12:17:49;;;;;;;6.50;5.72;;;25.20;99.90;;;;;;5069376;28;20127;-81
2023/08/24 12:20:22;;;;;;;8.48;6.80;;;25.20;99.90;;;;;;5066055;28;20748;-81
2023/08/24 12:22:52;;;;;;;6.45;5.78;;;25.10;99.90;;;;;;5066399;28;20526;-80
2023/08/24 12:25:18;;;;;;;8.65;6.88;;;25.10;99.90;;;;;;5066913;28;20040;-81
2023/08/24 12:27:44;;;;;;;10.20;7.00;;;25.20;99.90;;;;;;5067724;28;20040;-82
2023/08/24 12:30:11;;;;;;;9.80;6.10;;;25.30;99.90;;;;;;5067734;28;20110;-81
2023/08/24 12:32:44;;;;;;;7.70;5.97;;;25.30;99.90;;;;;;5067330;28;20052;-81
2023/08/24 12:35:09;;;;;;;7.22;6.13;;;25.50;99.90;;;;;;5057447;28;20139;-81
2023/08/24 12:37:36;;;;;;;7.35;6.20;;;25.40;99.90;;;;;;5078324;28;20128;-81
2023/08/24 12:40:05;;;;;;;8.50;6.00;;;25.50;99.90;;;;;;5067170;28;20063;-79
2023/08/24 12:42:31;;;;;;;7.68;6.40;;;25.60;99.90;;;;;;5071650;28;20066;-81